Terminal Aerodrome Forecast
Issued by NWS

Home | Current Version | Previous Version | Text Only | Print | Product List | Glossary On
Versions: 1 2 3 4 5 6 7 8 9 10 11 12 13 14 15 16 17 18 19 20 21 22
000
FTUS43 KAPX 041120
TAFMBL
TAF
KMBL 041120Z 0412/0512 25004KT P6SM SCT090
     FM041500 27007KT P6SM BKN050
     FM042000 31009G17KT P6SM SCT050
     FM050100 31005KT P6SM SCT060
      AMD LTD TO CLD VIS AND WIND=

USA.gov is the U.S. government's official web portal to all federal, state and local government web resources and services.